createdAt,value
2018-06-30T00:02:07.788Z,2.03
2018-06-30T00:04:40.305Z,2.00
2018-06-30T00:07:08.628Z,2.00
2018-06-30T00:09:36.637Z,2.30
2018-06-30T00:12:04.913Z,2.40
2018-06-30T00:14:33.204Z,2.10
2018-06-30T00:17:01.484Z,2.10
2018-06-30T00:19:29.757Z,2.20
2018-06-30T00:21:58.097Z,2.07
2018-06-30T00:24:26.393Z,1.93
2018-06-30T00:27:00.058Z,2.00
2018-06-30T00:29:29.020Z,1.93
2018-06-30T00:31:57.344Z,1.90
2018-06-30T00:34:25.635Z,2.00
2018-06-30T00:36:53.992Z,2.03
2018-06-30T00:39:22.288Z,2.23
2018-06-30T00:41:50.614Z,1.90
2018-06-30T00:44:19.239Z,2.07
2018-06-30T00:46:47.544Z,2.17
2018-06-30T00:49:17.559Z,2.00
2018-06-30T00:51:45.885Z,2.20
2018-06-30T00:54:14.184Z,1.90
2018-06-30T00:56:42.212Z,2.00
2018-06-30T00:59:10.602Z,2.30
2018-06-30T01:01:38.852Z,2.10
2018-06-30T01:04:07.097Z,2.00
2018-06-30T01:06:35.404Z,1.93
2018-06-30T01:09:04.363Z,2.10
2018-06-30T01:11:32.672Z,2.00
2018-06-30T01:14:00.932Z,2.10
2018-06-30T01:16:29.221Z,2.10
2018-06-30T01:18:57.539Z,2.20
2018-06-30T01:21:25.803Z,1.97
2018-06-30T01:23:54.075Z,1.97
2018-06-30T01:26:22.383Z,1.83
2018-06-30T01:28:50.736Z,2.13
2018-06-30T01:31:19.013Z,1.97
2018-06-30T01:33:47.260Z,1.90
2018-06-30T01:36:15.592Z,2.37
2018-06-30T01:38:43.889Z,1.97
2018-06-30T01:41:12.184Z,1.90
2018-06-30T01:43:40.476Z,2.33
2018-06-30T01:46:08.720Z,2.03
2018-06-30T01:48:37.026Z,2.30
2018-06-30T01:51:05.423Z,2.17
2018-06-30T01:53:33.752Z,2.17
2018-06-30T01:56:01.967Z,2.30
2018-06-30T01:58:30.271Z,2.00
2018-06-30T02:00:58.653Z,2.07
2018-06-30T02:03:27.208Z,2.00
2018-06-30T02:05:55.459Z,2.20
2018-06-30T02:08:23.747Z,2.10
2018-06-30T02:10:52.061Z,2.00
2018-06-30T02:13:20.356Z,2.10
2018-06-30T02:15:48.335Z,2.10
2018-06-30T02:18:16.628Z,2.30
2018-06-30T02:20:44.923Z,2.30
2018-06-30T02:23:13.180Z,2.10
2018-06-30T02:25:41.503Z,2.20
2018-06-30T02:28:09.832Z,1.93
2018-06-30T02:30:38.104Z,2.13
2018-06-30T02:33:06.412Z,1.93
2018-06-30T02:35:34.691Z,2.47
2018-06-30T02:38:03.001Z,2.37
2018-06-30T02:40:31.275Z,2.40
2018-06-30T02:42:59.711Z,2.37
2018-06-30T02:45:27.988Z,2.00
2018-06-30T02:47:56.228Z,2.27
2018-06-30T02:50:24.489Z,2.10
2018-06-30T02:52:52.779Z,2.23
2018-06-30T02:55:20.791Z,2.07
2018-06-30T02:57:49.078Z,2.37
2018-06-30T03:00:17.439Z,1.90
2018-06-30T03:02:45.719Z,2.43
2018-06-30T03:05:13.963Z,1.83
2018-06-30T03:07:42.253Z,1.87
2018-06-30T03:10:10.256Z,1.93
2018-06-30T03:12:38.516Z,2.33
2018-06-30T03:15:06.817Z,2.17
2018-06-30T03:17:35.116Z,1.93
2018-06-30T03:20:03.549Z,2.33
2018-06-30T03:22:31.827Z,2.00
2018-06-30T03:25:00.131Z,2.20
2018-06-30T03:27:28.425Z,2.07
2018-06-30T03:29:56.679Z,1.97
2018-06-30T03:32:24.988Z,2.20
2018-06-30T03:34:53.312Z,1.80
2018-06-30T03:37:21.582Z,2.40
2018-06-30T03:39:49.884Z,1.93
2018-06-30T03:42:18.141Z,2.10
2018-06-30T03:44:46.415Z,2.23
2018-06-30T03:47:14.778Z,2.17
2018-06-30T03:49:43.092Z,2.43
2018-06-30T03:52:11.396Z,2.23
2018-06-30T03:54:39.675Z,2.17
2018-06-30T03:57:07.936Z,2.20
2018-06-30T03:59:36.355Z,2.07
2018-06-30T04:02:04.327Z,2.30
2018-06-30T04:04:32.619Z,2.70
2018-06-30T04:07:00.891Z,2.30
2018-06-30T04:09:29.166Z,2.17
2018-06-30T04:11:57.448Z,2.30
2018-06-30T04:14:25.724Z,2.40
2018-06-30T04:16:54.032Z,2.40
2018-06-30T04:19:22.060Z,2.33
2018-06-30T04:21:50.286Z,2.10
2018-06-30T04:24:18.545Z,1.90
2018-06-30T04:26:46.852Z,2.30
2018-06-30T04:29:15.514Z,2.50
2018-06-30T04:31:43.810Z,2.53
2018-06-30T04:34:12.084Z,2.50
2018-06-30T04:36:40.378Z,2.27
2018-06-30T04:39:09.498Z,2.10
2018-06-30T04:41:37.788Z,2.33
2018-06-30T04:44:06.281Z,2.40
2018-06-30T04:46:37.565Z,2.00
2018-06-30T04:49:05.950Z,2.50
2018-06-30T04:51:34.223Z,2.30
2018-06-30T04:54:02.542Z,2.23
2018-06-30T04:56:30.839Z,2.30
2018-06-30T04:58:59.099Z,2.30
2018-06-30T05:01:27.421Z,2.37
2018-06-30T05:03:55.719Z,2.60
2018-06-30T05:06:24.026Z,2.10
2018-06-30T05:08:52.352Z,2.10
2018-06-30T05:11:20.652Z,2.27
2018-06-30T05:13:49.021Z,2.60
2018-06-30T05:16:17.280Z,2.53
2018-06-30T05:18:45.538Z,2.40
2018-06-30T05:21:13.861Z,2.20
2018-06-30T05:23:42.124Z,2.30
2018-06-30T05:26:10.394Z,2.30
2018-06-30T05:28:38.692Z,2.40
2018-06-30T05:31:07.112Z,2.27
2018-06-30T05:33:35.516Z,2.60
2018-06-30T05:36:03.876Z,2.30
2018-06-30T05:38:32.252Z,2.20
2018-06-30T05:41:00.515Z,2.73
2018-06-30T05:43:28.970Z,2.60
2018-06-30T05:45:57.291Z,2.47
2018-06-30T05:48:25.592Z,2.20
2018-06-30T05:50:53.852Z,2.70
2018-06-30T05:53:22.128Z,2.37
2018-06-30T05:55:50.412Z,2.67
2018-06-30T05:58:18.728Z,2.40
2018-06-30T06:00:47.008Z,2.50
2018-06-30T06:03:15.000Z,2.60
2018-06-30T06:05:43.303Z,2.10
2018-06-30T06:08:11.583Z,2.40
2018-06-30T06:10:39.872Z,2.23
2018-06-30T06:13:08.140Z,2.27
2018-06-30T06:15:36.427Z,2.13
2018-06-30T06:18:04.755Z,2.13
2018-06-30T06:20:33.079Z,2.07
2018-06-30T06:23:01.328Z,2.23
2018-06-30T06:25:29.700Z,2.00
2018-06-30T06:27:57.997Z,1.83
2018-06-30T06:30:26.335Z,2.40
2018-06-30T06:32:55.616Z,2.10
2018-06-30T06:35:23.896Z,2.27
2018-06-30T06:37:52.951Z,2.03
2018-06-30T06:40:21.283Z,1.97
2018-06-30T06:42:49.287Z,1.93
2018-06-30T06:45:17.574Z,2.20
2018-06-30T06:47:45.885Z,2.40
2018-06-30T06:50:14.182Z,2.23
2018-06-30T06:52:42.190Z,2.27
2018-06-30T06:55:10.476Z,2.40
2018-06-30T06:57:38.720Z,2.23
2018-06-30T07:00:07.639Z,2.30
2018-06-30T07:02:36.116Z,2.47
2018-06-30T07:05:04.811Z,2.27
2018-06-30T07:07:33.063Z,2.30
2018-06-30T07:10:01.399Z,2.40
2018-06-30T07:12:29.630Z,2.00
2018-06-30T07:14:58.076Z,2.30
2018-06-30T07:17:26.383Z,2.40
2018-06-30T07:19:54.671Z,2.17
2018-06-30T07:22:22.972Z,2.70
2018-06-30T07:24:51.216Z,1.93
2018-06-30T07:27:19.528Z,2.23
2018-06-30T07:29:48.908Z,2.00
2018-06-30T07:32:17.219Z,2.20
2018-06-30T07:34:45.484Z,2.20
2018-06-30T07:37:13.743Z,2.20
2018-06-30T07:39:42.025Z,2.70
2018-06-30T07:42:10.343Z,2.30
2018-06-30T07:44:38.355Z,2.30
2018-06-30T07:47:06.676Z,2.10
2018-06-30T07:49:34.994Z,2.00
2018-06-30T07:52:03.246Z,2.07
2018-06-30T07:54:31.285Z,2.10
2018-06-30T07:56:59.521Z,2.10
2018-06-30T07:59:28.819Z,2.20
2018-06-30T08:01:57.139Z,2.10
2018-06-30T08:04:25.404Z,2.43
2018-06-30T08:06:53.629Z,2.10
2018-06-30T08:09:21.921Z,2.40
2018-06-30T08:11:50.192Z,2.07
2018-06-30T08:14:18.479Z,2.20
2018-06-30T08:16:46.989Z,2.27
2018-06-30T08:19:15.280Z,2.40
2018-06-30T08:21:43.588Z,2.37
2018-06-30T08:24:11.902Z,2.20
2018-06-30T08:26:40.211Z,2.17
2018-06-30T08:29:08.507Z,2.13
2018-06-30T08:31:36.559Z,2.40
2018-06-30T08:34:04.827Z,2.30
2018-06-30T08:36:33.156Z,2.17
2018-06-30T08:39:01.443Z,2.17
2018-06-30T08:41:29.744Z,2.50
2018-06-30T08:43:58.016Z,2.10
2018-06-30T08:46:26.296Z,2.10
2018-06-30T08:48:55.169Z,2.40
2018-06-30T08:51:23.563Z,2.00
2018-06-30T08:53:51.840Z,2.30
2018-06-30T08:56:20.114Z,1.90
2018-06-30T08:58:48.530Z,2.40
2018-06-30T09:01:16.803Z,2.33
2018-06-30T09:03:45.098Z,2.23
2018-06-30T09:06:13.391Z,1.80
2018-06-30T09:08:41.376Z,1.97
2018-06-30T09:11:09.617Z,1.90
2018-06-30T09:13:37.969Z,1.77
2018-06-30T09:16:06.424Z,2.27
2018-06-30T09:18:34.664Z,2.20
2018-06-30T09:21:02.994Z,1.83
2018-06-30T09:23:31.329Z,2.23
2018-06-30T09:25:59.404Z,1.60
2018-06-30T09:28:27.710Z,1.80
2018-06-30T09:30:56.009Z,2.20
2018-06-30T09:33:24.327Z,2.10
2018-06-30T09:35:52.312Z,2.00
2018-06-30T09:38:20.608Z,2.07
2018-06-30T09:40:48.956Z,2.03
2018-06-30T09:43:16.942Z,2.03
2018-06-30T09:45:45.247Z,2.27
2018-06-30T09:48:13.567Z,1.60
2018-06-30T09:50:41.844Z,1.77
2018-06-30T09:53:10.272Z,2.00
2018-06-30T09:55:38.573Z,2.27
2018-06-30T09:58:07.137Z,1.97
2018-06-30T10:00:38.314Z,1.70
2018-06-30T10:03:06.975Z,1.70
2018-06-30T10:05:35.273Z,1.97
2018-06-30T10:08:03.692Z,2.20
2018-06-30T10:10:32.009Z,1.97
2018-06-30T10:13:00.273Z,1.90
2018-06-30T10:15:28.592Z,2.20
2018-06-30T10:17:56.858Z,1.93
2018-06-30T10:20:25.212Z,1.87
2018-06-30T10:22:53.556Z,1.97
2018-06-30T10:25:21.900Z,2.00
2018-06-30T10:27:50.193Z,2.00
2018-06-30T10:30:18.269Z,1.80
2018-06-30T10:32:46.305Z,2.33
2018-06-30T10:35:14.679Z,1.90
2018-06-30T10:37:42.966Z,1.80
2018-06-30T10:40:11.263Z,1.90
2018-06-30T10:42:39.316Z,1.93
2018-06-30T10:45:08.350Z,2.00
2018-06-30T10:47:36.676Z,1.80
2018-06-30T10:50:05.029Z,2.00
2018-06-30T10:52:33.320Z,2.10
2018-06-30T10:55:01.637Z,2.20
2018-06-30T10:57:29.928Z,1.97
2018-06-30T10:59:58.211Z,2.03
2018-06-30T11:02:26.515Z,1.90
2018-06-30T11:04:54.861Z,1.93
2018-06-30T11:07:22.848Z,1.50
2018-06-30T11:09:51.180Z,2.00
2018-06-30T11:12:19.503Z,2.00
2018-06-30T11:14:47.763Z,1.63
2018-06-30T11:17:16.061Z,1.73
2018-06-30T11:19:44.444Z,2.00
2018-06-30T11:22:13.035Z,1.80
2018-06-30T11:24:41.525Z,2.00
2018-06-30T11:27:09.795Z,1.80
2018-06-30T11:29:38.157Z,1.90
2018-06-30T11:32:06.484Z,1.90
2018-06-30T11:34:34.779Z,1.90
2018-06-30T11:37:02.843Z,1.87
2018-06-30T11:39:31.203Z,2.03
2018-06-30T11:41:59.514Z,1.80
2018-06-30T11:44:27.526Z,1.70
2018-06-30T11:46:55.813Z,1.80
2018-06-30T11:49:24.088Z,2.00
2018-06-30T11:51:52.377Z,2.10
2018-06-30T11:54:20.619Z,1.83
2018-06-30T11:56:48.893Z,1.80
2018-06-30T11:59:17.715Z,1.90
2018-06-30T12:01:46.169Z,1.97
2018-06-30T12:04:14.537Z,2.03
2018-06-30T12:06:42.836Z,1.90
2018-06-30T12:09:11.644Z,2.00
2018-06-30T12:11:40.298Z,2.13
2018-06-30T12:14:09.407Z,1.80
2018-06-30T12:16:38.100Z,1.93
2018-06-30T12:19:06.396Z,1.93
2018-06-30T12:21:34.684Z,2.37
2018-06-30T12:24:03.035Z,1.97
2018-06-30T12:26:31.341Z,2.07
2018-06-30T12:28:59.624Z,2.00
2018-06-30T12:31:27.952Z,1.83
2018-06-30T12:33:56.220Z,1.67
2018-06-30T12:36:24.514Z,2.10
2018-06-30T12:38:52.794Z,1.63
2018-06-30T12:41:21.156Z,1.73
2018-06-30T12:43:49.438Z,1.50
2018-06-30T12:46:17.701Z,1.63
2018-06-30T12:48:45.990Z,1.70
2018-06-30T12:51:14.321Z,1.90
2018-06-30T12:53:42.584Z,1.77
2018-06-30T12:56:10.889Z,1.80
2018-06-30T12:58:38.895Z,2.13
2018-06-30T13:01:07.361Z,1.97
2018-06-30T13:03:35.698Z,1.70
2018-06-30T13:06:04.087Z,2.00
2018-06-30T13:08:32.325Z,1.90
2018-06-30T13:11:00.648Z,2.00
2018-06-30T13:13:28.652Z,1.70
2018-06-30T13:15:56.918Z,1.60
2018-06-30T13:18:25.232Z,1.67
2018-06-30T13:20:53.520Z,1.90
2018-06-30T13:23:21.771Z,1.57
2018-06-30T13:25:50.098Z,2.00
2018-06-30T13:28:18.117Z,1.50
2018-06-30T13:30:46.407Z,1.57
2018-06-30T13:33:14.662Z,2.10
2018-06-30T13:35:42.901Z,2.00
2018-06-30T13:38:11.143Z,1.77
2018-06-30T13:40:39.247Z,1.90
2018-06-30T13:43:08.521Z,1.70
2018-06-30T13:45:36.917Z,1.60
2018-06-30T13:48:05.536Z,1.60
2018-06-30T13:50:33.791Z,1.53
2018-06-30T13:53:01.786Z,1.90
2018-06-30T13:55:30.075Z,2.07
2018-06-30T13:57:58.426Z,1.70
2018-06-30T14:00:26.751Z,2.03
2018-06-30T14:02:55.065Z,1.60
2018-06-30T14:05:23.342Z,1.53
2018-06-30T14:07:51.596Z,1.90
2018-06-30T14:10:19.877Z,1.93
2018-06-30T14:12:48.157Z,1.60
2018-06-30T14:15:16.365Z,1.97
2018-06-30T14:17:44.628Z,1.80
2018-06-30T14:20:12.677Z,1.50
2018-06-30T14:22:40.981Z,1.70
2018-06-30T14:25:09.356Z,1.60
2018-06-30T14:27:37.380Z,2.23
2018-06-30T14:30:08.752Z,1.40
2018-06-30T14:32:37.053Z,1.93
2018-06-30T14:35:05.616Z,1.67
2018-06-30T14:37:33.943Z,1.63
2018-06-30T14:40:02.227Z,1.80
2018-06-30T14:42:30.490Z,1.50
2018-06-30T14:44:58.821Z,1.50
2018-06-30T14:47:27.077Z,2.10
2018-06-30T14:49:55.361Z,1.60
2018-06-30T14:52:23.707Z,1.57
2018-06-30T14:54:52.046Z,1.67
2018-06-30T14:57:20.436Z,1.30
2018-06-30T14:59:49.100Z,1.60
2018-06-30T15:02:17.485Z,1.47
2018-06-30T15:04:45.952Z,1.70
2018-06-30T15:07:14.256Z,1.60
2018-06-30T15:09:42.260Z,1.40
2018-06-30T15:12:10.585Z,1.30
2018-06-30T15:14:38.826Z,1.50
2018-06-30T15:17:07.110Z,1.90
2018-06-30T15:19:35.388Z,1.23
2018-06-30T15:22:03.801Z,1.43
2018-06-30T15:24:32.120Z,1.50
2018-06-30T15:27:00.349Z,1.50
2018-06-30T15:29:29.163Z,1.20
2018-06-30T15:31:57.436Z,1.23
2018-06-30T15:34:25.470Z,1.47
2018-06-30T15:36:54.029Z,1.30
2018-06-30T15:39:22.377Z,1.53
2018-06-30T15:41:50.935Z,1.30
2018-06-30T15:44:19.208Z,1.30
2018-06-30T15:46:47.555Z,1.20
2018-06-30T15:49:15.831Z,1.10
2018-06-30T15:51:44.152Z,1.23
2018-06-30T15:54:12.444Z,1.30
2018-06-30T15:56:40.751Z,1.40
2018-06-30T15:59:08.995Z,1.33
2018-06-30T16:01:37.234Z,1.10
2018-06-30T16:04:12.417Z,1.30
2018-06-30T16:06:40.746Z,1.30
2018-06-30T16:09:10.532Z,1.00
2018-06-30T16:11:38.834Z,1.10
2018-06-30T16:14:07.767Z,1.17
2018-06-30T16:16:35.960Z,1.00
2018-06-30T16:19:04.355Z,1.20
2018-06-30T16:21:32.700Z,1.30
2018-06-30T16:24:01.006Z,1.10
2018-06-30T16:26:29.311Z,1.27
2018-06-30T16:28:57.713Z,1.37
2018-06-30T16:31:26.012Z,1.10
2018-06-30T16:33:54.301Z,1.00
2018-06-30T16:36:22.687Z,1.00
2018-06-30T16:38:51.168Z,1.00
2018-06-30T16:41:19.416Z,1.10
2018-06-30T16:43:47.779Z,1.17
2018-06-30T16:46:16.018Z,0.83
2018-06-30T16:48:44.296Z,1.07
2018-06-30T16:51:13.597Z,1.60
2018-06-30T16:53:41.945Z,1.10
2018-06-30T16:56:10.237Z,0.80
2018-06-30T16:58:38.688Z,0.87
2018-06-30T17:01:07.117Z,0.97
2018-06-30T17:03:35.455Z,0.90
2018-06-30T17:06:03.837Z,0.80
2018-06-30T17:08:32.085Z,0.80
2018-06-30T17:11:00.404Z,0.60
2018-06-30T17:13:28.694Z,0.80
2018-06-30T17:15:57.016Z,0.90
2018-06-30T17:18:25.276Z,1.00
2018-06-30T17:20:53.522Z,0.77
2018-06-30T17:23:21.795Z,0.83
2018-06-30T17:25:50.162Z,0.70
2018-06-30T17:28:18.348Z,0.60
2018-06-30T17:30:46.652Z,0.70
2018-06-30T17:33:14.979Z,0.60
2018-06-30T17:35:43.256Z,0.70
2018-06-30T17:38:11.482Z,0.70
2018-06-30T17:40:39.789Z,0.60
2018-06-30T17:43:07.810Z,0.43
2018-06-30T17:45:36.146Z,0.43
2018-06-30T17:48:04.481Z,0.60
2018-06-30T17:50:32.760Z,0.40
2018-06-30T17:53:01.311Z,0.40
2018-06-30T17:55:29.588Z,0.50
2018-06-30T17:57:58.066Z,0.40
2018-06-30T18:00:26.388Z,0.30
2018-06-30T18:02:54.696Z,0.50
2018-06-30T18:05:22.969Z,0.50
2018-06-30T18:07:51.260Z,0.30
2018-06-30T18:10:19.671Z,0.60
2018-06-30T18:12:47.837Z,0.40
2018-06-30T18:15:16.164Z,0.50
2018-06-30T18:17:44.422Z,0.50
2018-06-30T18:20:12.694Z,0.40
2018-06-30T18:22:41.056Z,0.40
2018-06-30T18:25:09.301Z,0.60
2018-06-30T18:27:37.599Z,0.40
2018-06-30T18:30:06.097Z,0.50
2018-06-30T18:32:34.419Z,0.40
2018-06-30T18:35:02.422Z,0.30
2018-06-30T18:37:30.709Z,0.33
2018-06-30T18:39:58.929Z,0.30
2018-06-30T18:42:26.963Z,0.40
2018-06-30T18:44:55.264Z,0.50
2018-06-30T18:47:23.560Z,0.30
2018-06-30T18:49:51.563Z,0.40
2018-06-30T18:52:19.831Z,0.40
2018-06-30T18:54:48.133Z,0.47
2018-06-30T18:57:16.394Z,0.40
2018-06-30T18:59:45.108Z,0.30
2018-06-30T19:02:13.677Z,0.40
2018-06-30T19:04:41.970Z,0.43
2018-06-30T19:07:10.210Z,0.40
2018-06-30T19:09:38.513Z,0.40
2018-06-30T19:12:06.848Z,0.40
2018-06-30T19:14:35.145Z,0.40
2018-06-30T19:17:03.415Z,0.23
2018-06-30T19:19:31.694Z,0.40
2018-06-30T19:22:00.021Z,0.30
2018-06-30T19:24:28.311Z,0.50
2018-06-30T19:26:56.551Z,0.30
2018-06-30T19:29:24.943Z,0.23
2018-06-30T19:31:53.287Z,0.40
2018-06-30T19:34:21.572Z,0.40
2018-06-30T19:36:49.883Z,0.40
2018-06-30T19:39:18.178Z,0.30
2018-06-30T19:41:46.496Z,0.33
2018-06-30T19:44:14.809Z,0.67
2018-06-30T19:46:43.958Z,0.40
2018-06-30T19:49:12.218Z,0.30
2018-06-30T19:51:40.200Z,0.40
2018-06-30T19:54:08.467Z,0.30
2018-06-30T19:56:36.480Z,0.47
2018-06-30T19:59:04.991Z,0.53
2018-06-30T20:01:33.300Z,0.33
2018-06-30T20:04:01.581Z,0.37
2018-06-30T20:06:29.943Z,0.40
2018-06-30T20:08:57.971Z,0.33
2018-06-30T20:11:26.350Z,0.50
2018-06-30T20:13:54.736Z,0.30
2018-06-30T20:16:23.077Z,0.40
2018-06-30T20:18:51.385Z,0.73
2018-06-30T20:21:19.709Z,0.50
2018-06-30T20:23:47.737Z,0.57
2018-06-30T20:26:16.020Z,0.40
2018-06-30T20:28:44.273Z,0.60
2018-06-30T20:31:12.519Z,0.43
2018-06-30T20:33:40.556Z,0.23
2018-06-30T20:36:08.791Z,0.60
2018-06-30T20:38:37.064Z,0.80
2018-06-30T20:41:05.386Z,0.50
2018-06-30T20:43:33.683Z,0.50
2018-06-30T20:46:02.019Z,0.47
2018-06-30T20:48:30.303Z,0.40
2018-06-30T20:50:58.627Z,0.50
2018-06-30T20:53:26.908Z,0.37
2018-06-30T20:55:55.179Z,0.53
2018-06-30T20:58:23.460Z,0.30
2018-06-30T21:00:51.714Z,0.50
2018-06-30T21:03:20.820Z,0.37
2018-06-30T21:05:49.185Z,0.40
2018-06-30T21:08:17.555Z,0.40
2018-06-30T21:10:45.847Z,0.50
2018-06-30T21:13:13.839Z,0.40
2018-06-30T21:15:42.321Z,0.67
2018-06-30T21:18:10.586Z,0.40
2018-06-30T21:20:38.576Z,0.53
2018-06-30T21:23:06.867Z,0.30
2018-06-30T21:25:35.128Z,0.47
2018-06-30T21:28:03.405Z,0.50
2018-06-30T21:30:31.736Z,0.33
2018-06-30T21:32:59.988Z,0.40
2018-06-30T21:35:28.268Z,0.40
2018-06-30T21:37:56.524Z,0.50
2018-06-30T21:40:24.803Z,0.20
2018-06-30T21:42:53.055Z,0.30
2018-06-30T21:45:21.336Z,0.33
2018-06-30T21:47:49.615Z,0.40
2018-06-30T21:50:18.003Z,0.30
2018-06-30T21:52:46.240Z,0.40
2018-06-30T21:55:14.571Z,0.60
2018-06-30T21:57:42.860Z,0.37
2018-06-30T22:00:13.112Z,0.30
2018-06-30T22:02:41.456Z,0.57
2018-06-30T22:05:10.239Z,0.40
2018-06-30T22:07:38.516Z,0.40
2018-06-30T22:10:07.510Z,0.40
2018-06-30T22:12:35.876Z,0.40
2018-06-30T22:15:04.361Z,0.60
2018-06-30T22:17:32.655Z,0.90
2018-06-30T22:20:00.905Z,0.70
2018-06-30T22:22:29.460Z,1.00
2018-06-30T22:24:57.973Z,1.20
2018-06-30T22:27:26.287Z,1.10
2018-06-30T22:29:54.929Z,1.30
2018-06-30T22:32:23.210Z,1.17
2018-06-30T22:34:51.510Z,1.30
2018-06-30T22:37:19.816Z,1.40
2018-06-30T22:39:59.450Z,1.30
2018-06-30T22:42:27.726Z,1.30
2018-06-30T22:44:56.011Z,1.33
2018-06-30T22:47:24.266Z,1.30
2018-06-30T22:49:52.574Z,1.10
2018-06-30T22:52:20.640Z,1.30
2018-06-30T22:54:48.632Z,1.67
2018-06-30T22:57:16.956Z,1.17
2018-06-30T22:59:45.428Z,1.40
2018-06-30T23:02:13.679Z,1.30
2018-06-30T23:04:41.973Z,1.10
2018-06-30T23:07:10.244Z,1.10
2018-06-30T23:09:38.546Z,1.03
2018-06-30T23:12:06.845Z,1.27
2018-06-30T23:14:35.169Z,1.00
2018-06-30T23:17:03.416Z,0.97
2018-06-30T23:19:31.428Z,1.07
2018-06-30T23:21:59.719Z,1.00
2018-06-30T23:24:28.021Z,1.20
2018-06-30T23:26:56.301Z,0.90
2018-06-30T23:29:25.544Z,1.10
2018-06-30T23:31:53.865Z,0.90
2018-06-30T23:34:22.277Z,1.20
2018-06-30T23:36:50.563Z,0.90
2018-06-30T23:39:18.874Z,1.00
2018-06-30T23:41:47.144Z,1.00
2018-06-30T23:44:15.369Z,1.27
2018-06-30T23:46:43.685Z,0.90
2018-06-30T23:49:11.946Z,1.17
2018-06-30T23:51:40.209Z,1.03
2018-06-30T23:54:08.512Z,0.80
2018-06-30T23:56:36.775Z,0.90
2018-06-30T23:59:04.786Z,0.90
